Time;durP1;ratioP1;P1;durP2;ratioP2;P2;SDS_P1;SDS_P2;PMS_P1;PMS_P2;Temp;Humidity;BMP_temperature;BMP_pressure;BME280_temperature;BME280_humidity;BME280_pressure;Samples;Min_cycle;Max_cycle;Signal;HPM_P1;HPM_P2
2022/05/23 00:01:19;;;;;;;3.20;2.90;;;15.30;1.00;;;;;;5053493;28;20461;-56
2022/05/23 00:03:44;;;;;;;4.97;2.87;;;15.30;1.00;;;;;;5047228;28;22003;-56
2022/05/23 00:06:13;;;;;;;3.10;2.80;;;15.30;1.00;;;;;;5046196;28;20597;-55
2022/05/23 00:08:38;;;;;;;3.17;2.87;;;15.20;1.00;;;;;;5047524;28;20176;-56
2022/05/23 00:11:04;;;;;;;4.70;3.10;;;15.20;1.00;;;;;;5049610;28;20677;-56
2022/05/23 00:13:29;;;;;;;3.50;2.93;;;15.10;1.00;;;;;;5049328;28;20475;-56
2022/05/23 00:15:55;;;;;;;4.60;3.50;;;15.00;1.00;;;;;;5044622;28;22003;-56
2022/05/23 00:18:21;;;;;;;2.83;2.63;;;14.80;1.00;;;;;;5046708;28;20188;-56
2022/05/23 00:20:46;;;;;;;3.80;2.83;;;15.00;1.00;;;;;;5044074;28;20207;-56
2022/05/23 00:23:11;;;;;;;5.50;3.13;;;15.00;1.00;;;;;;5046815;28;20194;-57
2022/05/23 00:25:38;;;;;;;4.93;3.00;;;14.90;1.00;;;;;;5046531;28;20215;-56
2022/05/23 00:28:04;;;;;;;3.43;2.80;;;15.00;1.00;;;;;;5050040;28;20255;-56
2022/05/23 00:30:29;;;;;;;3.60;2.83;;;15.00;1.00;;;;;;5036888;28;21065;-56
2022/05/23 00:35:44;;;;;;;3.23;2.90;;;15.10;1.00;;;;;;5041731;28;20660;-56
2022/05/23 00:38:10;;;;;;;3.20;2.90;;;15.00;1.00;;;;;;5047426;28;20931;-55
2022/05/23 00:40:48;;;;;;;3.20;2.80;;;15.00;1.00;;;;;;5043723;28;20462;-56
2022/05/23 00:43:21;;;;;;;5.03;2.70;;;15.00;1.00;;;;;;5045966;28;20184;-57
2022/05/23 00:45:51;;;;;;;3.77;3.33;;;15.00;1.00;;;;;;5045989;28;20524;-54
2022/05/23 00:48:28;;;;;;;3.40;2.97;;;14.90;1.00;;;;;;5045400;28;20779;-56
2022/05/23 00:50:57;;;;;;;2.97;2.70;;;14.90;1.00;;;;;;5040392;28;20472;-55
2022/05/23 00:53:44;;;;;;;3.63;3.00;;;14.90;1.00;;;;;;5048618;28;20434;-56
2022/05/23 00:56:12;;;;;;;3.93;2.90;;;15.00;1.00;;;;;;5046422;28;20437;-55
2022/05/23 00:58:42;;;;;;;3.60;2.80;;;15.00;1.00;;;;;;5049591;28;20495;-56
2022/05/23 01:01:12;;;;;;;3.70;2.77;;;15.00;1.00;;;;;;5037894;28;20474;-55
2022/05/23 01:03:38;;;;;;;3.80;3.20;;;14.90;1.00;;;;;;5042550;28;20526;-55
2022/05/23 01:06:06;;;;;;;3.03;2.73;;;14.90;1.00;;;;;;5043807;28;20450;-55
2022/05/23 01:08:34;;;;;;;4.43;2.80;;;14.90;1.00;;;;;;5046431;28;20443;-55
2022/05/23 01:11:01;;;;;;;7.03;3.97;;;14.90;1.00;;;;;;5041284;28;20442;-56
2022/05/23 01:13:26;;;;;;;3.23;2.93;;;14.90;1.00;;;;;;5039022;28;20521;-55
2022/05/23 01:15:52;;;;;;;3.57;3.07;;;14.90;1.00;;;;;;5048646;28;20454;-55
2022/05/23 01:18:17;;;;;;;3.30;3.03;;;14.80;1.00;;;;;;5047574;28;20196;-56
2022/05/23 01:20:45;;;;;;;4.00;2.80;;;14.80;1.00;;;;;;5044443;28;20192;-56
2022/05/23 01:23:34;;;;;;;3.30;3.00;;;14.80;1.00;;;;;;5043071;28;20195;-54
2022/05/23 01:25:59;;;;;;;3.57;3.03;;;14.80;1.00;;;;;;5047582;28;20986;-56
2022/05/23 01:28:25;;;;;;;3.67;3.37;;;14.70;1.00;;;;;;5045628;28;20490;-55
2022/05/23 01:30:51;;;;;;;5.10;3.13;;;14.70;1.00;;;;;;5047574;28;20637;-55
2022/05/23 01:33:16;;;;;;;3.90;2.77;;;14.60;1.00;;;;;;5050431;28;20207;-56
2022/05/23 01:35:42;;;;;;;3.70;3.30;;;14.60;1.00;;;;;;5049925;28;20597;-56
2022/05/23 01:38:09;;;;;;;3.30;3.00;;;14.60;1.00;;;;;;5047227;28;20193;-55
2022/05/23 01:40:34;;;;;;;3.33;3.00;;;14.60;1.00;;;;;;5044902;28;21081;-56
2022/05/23 01:43:00;;;;;;;5.07;3.03;;;14.60;1.00;;;;;;5047895;28;20457;-56
2022/05/23 01:45:29;;;;;;;4.07;2.80;;;14.60;1.00;;;;;;5050695;28;20230;-55
2022/05/23 01:47:56;;;;;;;4.00;3.43;;;14.50;1.00;;;;;;5057262;28;21047;-56
2022/05/23 01:50:23;;;;;;;3.40;3.10;;;14.50;1.00;;;;;;5049853;28;20507;-56
2022/05/23 01:52:49;;;;;;;3.50;2.87;;;14.50;1.00;;;;;;5049349;28;20999;-57
2022/05/23 01:55:15;;;;;;;3.60;3.03;;;;;;;;;;5049450;28;20537;-56
2022/05/23 01:57:41;;;;;;;3.23;2.63;;;14.50;1.00;;;;;;5050513;28;20541;-56
2022/05/23 02:02:53;;;;;;;3.37;2.97;;;14.40;1.00;;;;;;5050685;28;20337;-56
2022/05/23 02:05:19;;;;;;;4.50;2.73;;;14.40;1.00;;;;;;5048381;28;20568;-56
2022/05/23 02:07:45;;;;;;;2.93;2.73;;;14.40;1.00;;;;;;5052259;28;20195;-55
2022/05/23 02:10:12;;;;;;;3.20;3.00;;;14.40;1.00;;;;;;5039845;28;20454;-56
2022/05/23 02:12:39;;;;;;;4.50;3.53;;;14.30;1.00;;;;;;5048492;28;20453;-56
2022/05/23 02:15:06;;;;;;;4.53;2.47;;;14.30;1.00;;;;;;5048706;28;20976;-56
2022/05/23 02:17:31;;;;;;;4.60;2.73;;;14.20;1.00;;;;;;5050012;28;20454;-56
2022/05/23 02:19:57;;;;;;;3.47;2.53;;;14.20;1.00;;;;;;5045079;28;20449;-56
2022/05/23 02:22:23;;;;;;;3.53;3.07;;;14.20;1.00;;;;;;5051534;28;20193;-55
2022/05/23 02:24:48;;;;;;;2.90;2.70;;;14.20;1.00;;;;;;5048316;28;20291;-57
2022/05/23 02:27:14;;;;;;;3.50;3.20;;;14.20;1.00;;;;;;5047942;28;20231;-56
2022/05/23 02:29:41;;;;;;;5.43;3.43;;;14.10;1.00;;;;;;5054702;28;20196;-56
2022/05/23 02:32:07;;;;;;;4.83;3.00;;;14.10;1.00;;;;;;5044334;28;20715;-56
2022/05/23 02:34:33;;;;;;;6.23;4.00;;;14.10;1.00;;;;;;5046491;28;20466;-56
2022/05/23 02:36:59;;;;;;;3.53;3.23;;;14.10;1.00;;;;;;5038487;28;20847;-55
2022/05/23 02:39:24;;;;;;;3.70;3.40;;;14.10;1.00;;;;;;5045887;28;20271;-57
2022/05/23 02:41:50;;;;;;;3.37;3.07;;;14.10;1.00;;;;;;5046026;28;20219;-57
2022/05/23 02:44:17;;;;;;;4.37;3.60;;;14.00;1.00;;;;;;5047839;28;20332;-56
2022/05/23 02:46:43;;;;;;;4.20;3.40;;;14.00;1.00;;;;;;5045742;28;20446;-55
2022/05/23 02:49:10;;;;;;;4.07;3.60;;;14.00;1.00;;;;;;5042046;28;20478;-56
2022/05/23 02:51:36;;;;;;;5.07;3.57;;;14.00;1.00;;;;;;5044441;28;20453;-55
2022/05/23 02:54:02;;;;;;;4.10;2.87;;;13.90;1.00;;;;;;5045187;28;20450;-55
2022/05/23 02:56:27;;;;;;;3.13;2.90;;;13.90;1.00;;;;;;5051985;28;20183;-56
2022/05/23 02:58:53;;;;;;;3.73;3.23;;;13.80;1.00;;;;;;5039641;28;20455;-56
2022/05/23 03:01:19;;;;;;;3.70;2.90;;;13.80;1.00;;;;;;5042112;28;20246;-57
2022/05/23 03:03:45;;;;;;;4.77;2.93;;;13.80;1.00;;;;;;5048835;28;20191;-55
2022/05/23 03:06:11;;;;;;;3.83;3.53;;;13.90;1.00;;;;;;5045129;28;20447;-55
2022/05/23 03:08:37;;;;;;;3.90;3.50;;;13.80;1.00;;;;;;5051497;28;20215;-57
2022/05/23 03:11:10;;;;;;;4.17;2.80;;;13.90;1.00;;;;;;5044420;28;20521;-56
2022/05/23 03:13:37;;;;;;;4.67;3.23;;;13.80;1.00;;;;;;5049382;28;20443;-57
2022/05/23 03:16:10;;;;;;;5.60;3.00;;;13.80;1.00;;;;;;5045566;28;20446;-57
2022/05/23 03:18:36;;;;;;;3.03;2.73;;;13.90;1.00;;;;;;5049669;28;20421;-57
2022/05/23 03:21:06;;;;;;;4.00;3.47;;;13.80;1.00;;;;;;5044119;28;20527;-55
2022/05/23 03:29:05;;;;;;;4.53;3.10;;;14.00;1.00;;;;;;5048614;28;20436;-54
2022/05/23 03:31:31;;;;;;;5.30;2.60;;;14.10;1.00;;;;;;5047522;28;20450;-55
2022/05/23 03:33:57;;;;;;;5.07;3.03;;;14.10;1.00;;;;;;5047308;28;20450;-56
2022/05/23 03:36:22;;;;;;;3.80;2.77;;;14.20;1.00;;;;;;5047915;28;20191;-56
2022/05/23 03:38:48;;;;;;;3.03;2.73;;;14.30;1.00;;;;;;5044727;28;20192;-56
2022/05/23 03:41:14;;;;;;;7.77;3.23;;;14.30;1.00;;;;;;5042516;28;20191;-55
2022/05/23 03:43:39;;;;;;;3.53;2.80;;;14.30;1.00;;;;;;5050845;28;20553;-56
2022/05/23 03:46:10;;;;;;;5.30;3.30;;;14.30;1.00;;;;;;5045044;28;20200;-54
2022/05/23 03:48:36;;;;;;;3.83;2.70;;;14.30;1.00;;;;;;5048504;28;20200;-56
2022/05/23 03:51:06;;;;;;;4.60;3.07;;;14.30;1.00;;;;;;5047917;28;20966;-56
2022/05/23 03:53:33;;;;;;;3.23;2.60;;;14.20;1.00;;;;;;5045632;28;20797;-55
2022/05/23 03:55:59;;;;;;;3.63;2.70;;;14.20;1.00;;;;;;5050476;28;20549;-57
2022/05/23 03:58:26;;;;;;;4.80;3.00;;;14.40;1.00;;;;;;5047353;28;20447;-56
2022/05/23 04:01:04;;;;;;;4.43;2.63;;;14.50;1.00;;;;;;5046805;28;20282;-55
2022/05/23 04:03:30;;;;;;;5.53;2.60;;;14.60;1.00;;;;;;5046979;28;20533;-55
2022/05/23 04:05:59;;;;;;;5.60;3.10;;;14.70;1.00;;;;;;5041365;28;21011;-54
2022/05/23 04:08:25;;;;;;;3.97;2.73;;;14.80;1.00;;;;;;5049445;28;20201;-54
2022/05/23 04:10:51;;;;;;;3.10;2.80;;;14.80;1.00;;;;;;5047383;28;20766;-55
2022/05/23 04:13:17;;;;;;;3.40;2.80;;;14.80;1.00;;;;;;5043627;28;20458;-57
2022/05/23 04:15:42;;;;;;;4.53;2.93;;;14.90;1.00;;;;;;5044983;28;20455;-57
2022/05/23 04:18:08;;;;;;;3.30;2.77;;;15.00;1.00;;;;;;5043721;28;20195;-57
2022/05/23 04:20:33;;;;;;;3.50;2.70;;;14.90;1.00;;;;;;5049485;28;20188;-59
2022/05/23 04:22:59;;;;;;;4.70;2.93;;;14.90;1.00;;;;;;5042603;28;20187;-58
2022/05/23 04:25:25;;;;;;;2.77;2.10;;;14.90;1.00;;;;;;5046491;28;20349;-58
2022/05/23 04:27:50;;;;;;;3.93;2.50;;;14.90;1.00;;;;;;5042739;28;20189;-57
2022/05/23 04:30:16;;;;;;;3.90;3.00;;;14.80;1.00;;;;;;5050151;28;20176;-57
2022/05/23 04:35:26;;;;;;;3.87;2.60;;;14.90;1.00;;;;;;5046490;28;20223;-58
2022/05/23 04:37:53;;;;;;;4.13;2.30;;;14.90;1.00;;;;;;5048241;28;20808;-58
2022/05/23 04:40:23;;;;;;;5.67;2.50;;;15.00;1.00;;;;;;5047669;28;20271;-59
2022/05/23 04:42:48;;;;;;;3.30;3.00;;;15.00;1.00;;;;;;5050100;28;20439;-56
2022/05/23 04:45:15;;;;;;;3.47;2.73;;;15.00;1.00;;;;;;5046708;28;20990;-57
2022/05/23 04:50:26;;;;;;;4.10;3.40;;;15.20;1.00;;;;;;5045792;28;20469;-54
2022/05/23 04:52:53;;;;;;;4.03;3.63;;;15.30;1.00;;;;;;5047876;28;20543;-57
2022/05/23 04:55:19;;;;;;;3.30;2.80;;;15.40;1.00;;;;;;5047021;28;20458;-54
2022/05/23 04:57:45;;;;;;;7.27;3.27;;;15.40;1.00;;;;;;5049840;28;20454;-56
2022/05/23 05:00:14;;;;;;;4.30;2.80;;;15.60;1.00;;;;;;5045313;28;20462;-56
2022/05/23 05:02:40;;;;;;;4.77;2.80;;;15.70;1.00;;;;;;5048650;28;20493;-57
2022/05/23 05:05:07;;;;;;;2.90;2.60;;;15.90;1.00;;;;;;5047765;28;20557;-56
2022/05/23 05:07:32;;;;;;;3.70;3.37;;;16.00;1.00;;;;;;5052830;28;20438;-56
2022/05/23 05:09:58;;;;;;;2.93;2.67;;;16.10;1.00;;;;;;5053113;28;20961;-55
2022/05/23 05:12:24;;;;;;;2.80;2.50;;;16.30;1.00;;;;;;5055892;28;20188;-56
2022/05/23 05:14:49;;;;;;;4.00;2.97;;;16.30;1.00;;;;;;5049206;28;20192;-57
2022/05/23 05:17:15;;;;;;;4.73;3.40;;;16.40;1.00;;;;;;5051138;28;20196;-56
2022/05/23 05:19:40;;;;;;;7.30;2.97;;;16.60;1.00;;;;;;5049753;28;20199;-56
2022/05/23 05:22:06;;;;;;;4.83;3.10;;;16.70;1.00;;;;;;5047121;28;20261;-55
2022/05/23 05:24:32;;;;;;;2.60;2.30;;;16.90;1.00;;;;;;5048713;28;20613;-56
2022/05/23 05:27:00;;;;;;;8.33;2.93;;;16.90;1.00;;;;;;5052483;28;20190;-55
2022/05/23 05:29:26;;;;;;;3.90;2.50;;;17.00;1.00;;;;;;5051543;28;20199;-53
2022/05/23 05:32:21;;;;;;;9.47;2.60;;;17.20;1.00;;;;;;5049049;28;20504;-56
2022/05/23 05:35:05;;;;;;;4.30;2.07;;;17.30;1.00;;;;;;5052864;28;20540;-54
2022/05/23 05:37:39;;;;;;;7.40;2.37;;;17.50;1.00;;;;;;5052366;28;20504;-55
2022/05/23 05:40:06;;;;;;;2.63;2.20;;;17.60;1.00;;;;;;5050493;28;20454;-56
2022/05/23 05:42:39;;;;;;;4.30;2.03;;;17.80;1.00;;;;;;5057652;28;20536;-53
2022/05/23 05:45:10;;;;;;;3.00;2.20;;;18.00;1.00;;;;;;5064694;28;20491;-56
2022/05/23 05:47:39;;;;;;;4.83;2.43;;;18.10;1.00;;;;;;5052936;28;20423;-56
2022/05/23 05:50:11;;;;;;;2.70;1.70;;;18.20;1.00;;;;;;5051451;28;20760;-55
2022/05/23 05:52:38;;;;;;;6.70;1.90;;;18.40;1.00;;;;;;5051666;28;20511;-55
2022/05/23 05:55:05;;;;;;;1.50;1.40;;;18.40;1.00;;;;;;5051885;28;20516;-56
2022/05/23 05:57:31;;;;;;;6.53;1.80;;;18.40;1.00;;;;;;5057640;28;21204;-56
2022/05/23 05:59:57;;;;;;;3.57;1.77;;;18.50;1.00;;;;;;5050469;28;20454;-57
2022/05/23 06:02:22;;;;;;;2.90;1.77;;;18.60;1.00;;;;;;5052365;28;20187;-56
2022/05/23 06:04:48;;;;;;;2.77;2.00;;;18.80;1.00;;;;;;5048374;28;20212;-56
2022/05/23 06:12:52;;;;;;;5.87;2.03;;;19.60;1.00;;;;;;5052576;28;20537;-55
2022/05/23 06:15:17;;;;;;;3.23;1.70;;;19.90;1.00;;;;;;5050223;28;20454;-56
2022/05/23 06:17:44;;;;;;;8.93;1.53;;;20.00;1.00;;;;;;5050294;28;20242;-56
2022/05/23 06:20:11;;;;;;;3.00;1.60;;;20.10;1.00;;;;;;5048926;28;20688;-57
2022/05/23 06:22:37;;;;;;;3.30;1.83;;;20.30;1.00;;;;;;5050664;28;20465;-57
2022/05/23 06:25:03;;;;;;;3.57;1.50;;;20.40;1.00;;;;;;5052189;28;20468;-57
2022/05/23 06:27:29;;;;;;;2.17;1.70;;;20.50;1.00;;;;;;5050884;28;20198;-57
2022/05/23 06:29:55;;;;;;;2.00;1.80;;;;;;;;;;5051128;28;20417;-57
2022/05/23 06:32:21;;;;;;;3.20;1.50;;;20.80;1.00;;;;;;5049267;28;20180;-57
2022/05/23 06:34:46;;;;;;;3.13;1.33;;;20.70;1.00;;;;;;5049763;28;20427;-57
2022/05/23 06:37:12;;;;;;;2.80;2.00;;;20.60;1.00;;;;;;5048397;28;20497;-56
2022/05/23 06:39:38;;;;;;;2.60;1.63;;;20.40;1.00;;;;;;5070594;28;20180;-56
2022/05/23 06:42:04;;;;;;;2.63;1.40;;;20.30;1.00;;;;;;5053027;28;20194;-57
2022/05/23 06:44:30;;;;;;;4.53;2.13;;;;;;;;;;5050124;28;20238;-57
2022/05/23 06:46:56;;;;;;;2.80;1.93;;;20.30;1.00;;;;;;5052072;28;20409;-57
2022/05/23 06:49:22;;;;;;;4.93;1.70;;;20.40;1.00;;;;;;5047395;28;20442;-57
2022/05/23 06:51:51;;;;;;;4.57;2.07;;;20.50;1.00;;;;;;5052093;28;20210;-57
2022/05/23 06:54:19;;;;;;;3.23;2.10;;;20.70;1.00;;;;;;5048068;28;20203;-58
2022/05/23 06:56:44;;;;;;;4.83;1.77;;;20.80;1.00;;;;;;5058922;28;20574;-57
2022/05/23 06:59:11;;;;;;;6.93;2.00;;;;;;;;;;5048822;28;20446;-57
2022/05/23 07:01:37;;;;;;;2.40;1.63;;;20.60;1.00;;;;;;5050086;28;20192;-57
2022/05/23 07:04:03;;;;;;;3.73;2.17;;;21.10;1.00;;;;;;5054333;28;20508;-57
2022/05/23 07:14:41;;;;;;;3.90;1.70;;;21.00;1.00;;;;;;5047694;28;20624;-58
2022/05/23 07:17:07;;;;;;;3.67;2.33;;;21.20;1.00;;;;;;5052752;28;20545;-56
2022/05/23 07:19:35;;;;;;;3.00;2.70;;;21.40;1.00;;;;;;5048698;28;20549;-56
2022/05/23 07:22:02;;;;;;;3.40;2.20;;;21.40;1.00;;;;;;5057454;28;20199;-55
2022/05/23 07:24:28;;;;;;;4.77;2.27;;;21.50;1.00;;;;;;5052888;28;20527;-57
2022/05/23 07:26:55;;;;;;;2.17;1.80;;;21.60;1.00;;;;;;5052409;28;20445;-56
2022/05/23 07:29:24;;;;;;;3.50;2.17;;;21.60;1.00;;;;;;5058435;28;20473;-56
2022/05/23 07:31:50;;;;;;;3.07;1.90;;;21.70;1.00;;;;;;5070856;28;20897;-57
2022/05/23 07:34:16;;;;;;;4.43;2.10;;;21.70;1.00;;;;;;5048759;28;20847;-57
2022/05/23 07:36:42;;;;;;;5.10;2.27;;;21.60;1.00;;;;;;5051186;28;20420;-57
2022/05/23 07:39:09;;;;;;;2.37;1.67;;;;;;;;;;5049301;28;20510;-57
2022/05/23 07:41:36;;;;;;;4.23;2.60;;;21.80;1.00;;;;;;5050906;28;20176;-57
2022/05/23 07:44:02;;;;;;;3.83;2.20;;;21.90;1.00;;;;;;5049715;28;20473;-57
2022/05/23 07:46:27;;;;;;;5.60;1.97;;;22.00;1.00;;;;;;5062097;28;20460;-56
2022/05/23 07:48:53;;;;;;;7.93;1.90;;;;;;;;;;5049390;28;20533;-57
2022/05/23 07:51:22;;;;;;;2.37;1.80;;;22.30;1.00;;;;;;5048293;28;20199;-56
2022/05/23 08:02:01;;;;;;;7.60;2.40;;;22.50;1.00;;;;;;5048303;28;20416;-57
2022/05/23 08:04:27;;;;;;;4.33;2.00;;;22.60;1.00;;;;;;5049275;28;20938;-58
2022/05/23 08:06:53;;;;;;;3.70;3.03;;;22.50;1.00;;;;;;5048625;28;20526;-56
2022/05/23 08:09:19;;;;;;;7.53;2.30;;;22.70;1.00;;;;;;5049852;28;20188;-58
2022/05/23 08:11:49;;;;;;;3.60;1.90;;;22.80;1.00;;;;;;5044573;28;20891;-57
2022/05/23 08:14:15;;;;;;;2.40;1.77;;;22.80;1.00;;;;;;5059047;28;20284;-55
2022/05/23 08:16:42;;;;;;;4.80;2.03;;;22.70;1.00;;;;;;5055782;28;20451;-56
2022/05/23 08:19:08;;;;;;;2.30;2.00;;;22.60;1.00;;;;;;5048938;28;20485;-58
2022/05/23 08:21:35;;;;;;;5.57;2.73;;;22.60;1.00;;;;;;5052740;28;20434;-57
2022/05/23 08:24:01;;;;;;;6.53;2.00;;;22.80;1.00;;;;;;5065152;28;20450;-56
2022/05/23 08:26:27;;;;;;;3.07;2.03;;;23.00;1.00;;;;;;5050080;28;20445;-58
2022/05/23 08:28:53;;;;;;;3.87;1.93;;;23.00;1.00;;;;;;5050269;28;20180;-56
2022/05/23 08:31:19;;;;;;;4.13;2.37;;;22.90;1.00;;;;;;5066692;28;20978;-57
2022/05/23 08:33:45;;;;;;;4.03;1.97;;;22.80;1.00;;;;;;5070194;28;20792;-57
2022/05/23 08:36:10;;;;;;;5.30;2.37;;;22.90;1.00;;;;;;5070466;28;20404;-58
2022/05/23 08:38:37;;;;;;;2.77;1.50;;;23.10;1.00;;;;;;5068642;28;20644;-57
2022/05/23 08:41:19;;;;;;;2.33;1.97;;;23.10;1.00;;;;;;5070133;28;20587;-56
2022/05/23 08:44:25;;;;;;;2.63;2.17;;;23.20;1.00;;;;;;5064671;28;20449;-55
2022/05/23 08:47:10;;;;;;;3.47;2.20;;;23.20;1.00;;;;;;5041781;28;20404;-57
2022/05/23 08:49:45;;;;;;;6.97;2.20;;;23.40;1.00;;;;;;5069825;28;20500;-56
2022/05/23 08:52:31;;;;;;;2.53;2.00;;;23.60;1.00;;;;;;5070400;28;20428;-57
2022/05/23 08:55:02;;;;;;;3.97;2.30;;;23.80;1.00;;;;;;5070108;28;20448;-57
2022/05/23 08:57:35;;;;;;;4.20;2.00;;;23.90;1.00;;;;;;5060833;28;20499;-58
2022/05/23 09:00:08;;;;;;;7.77;2.43;;;23.90;1.00;;;;;;5050143;28;20568;-58
2022/05/23 09:02:49;;;;;;;3.87;2.00;;;23.70;1.00;;;;;;5048392;28;20408;-56
2022/05/23 09:05:20;;;;;;;3.90;2.67;;;23.90;1.00;;;;;;5069952;28;20469;-56
2022/05/23 09:07:52;;;;;;;3.73;2.07;;;23.90;1.00;;;;;;5060504;28;20434;-58
2022/05/23 09:10:46;;;;;;;3.77;1.97;;;23.70;1.00;;;;;;5064605;28;20433;-55
2022/05/23 09:13:14;;;;;;;4.80;1.83;;;23.50;1.00;;;;;;5067379;28;20426;-56
2022/05/23 09:15:40;;;;;;;4.40;2.07;;;23.60;1.00;;;;;;5049460;28;20439;-58
2022/05/23 09:18:16;;;;;;;1.90;1.70;;;23.80;1.00;;;;;;5050020;28;20439;-57
2022/05/23 09:20:48;;;;;;;3.20;2.10;;;23.60;1.00;;;;;;5049808;28;20441;-57
2022/05/23 09:23:32;;;;;;;6.60;2.00;;;23.80;1.00;;;;;;5049880;28;20443;-56
2022/05/23 09:26:06;;;;;;;2.40;2.20;;;23.50;1.00;;;;;;5049076;28;20870;-57
2022/05/23 09:28:36;;;;;;;3.30;1.63;;;23.50;1.00;;;;;;5069905;28;20496;-57
2022/05/23 09:31:17;;;;;;;2.53;2.00;;;23.40;1.00;;;;;;5065883;28;20430;-57
2022/05/23 09:33:50;;;;;;;2.80;2.00;;;23.20;1.00;;;;;;5048258;28;20424;-58
2022/05/23 09:36:27;;;;;;;4.03;2.03;;;23.30;1.00;;;;;;5049377;28;20533;-57
2022/05/23 09:38:59;;;;;;;2.30;2.00;;;23.50;1.00;;;;;;5048675;28;20981;-56
2022/05/23 09:49:52;;;;;;;5.40;2.10;;;24.20;1.00;;;;;;5049883;28;20828;-59
2022/05/23 09:52:32;;;;;;;2.87;1.80;;;24.70;1.00;;;;;;5050577;28;20469;-57
2022/05/23 09:55:03;;;;;;;2.90;1.70;;;24.80;1.00;;;;;;5052901;28;20188;-56
2022/05/23 09:58:02;;;;;;;4.10;2.07;;;25.00;1.00;;;;;;5052823;28;20430;-57
2022/05/23 10:00:28;;;;;;;2.90;1.83;;;25.30;1.00;;;;;;5048412;28;20959;-57
2022/05/23 10:03:02;;;;;;;4.73;1.90;;;25.00;1.00;;;;;;5068677;28;20420;-57
2022/05/23 10:05:41;;;;;;;3.23;1.90;;;24.80;1.00;;;;;;5070590;28;20206;-57
2022/05/23 10:08:13;;;;;;;4.00;1.87;;;24.60;1.00;;;;;;5050972;28;20435;-56
2022/05/23 10:10:55;;;;;;;10.00;2.13;;;24.80;1.00;;;;;;5056767;28;20939;-57
2022/05/23 10:13:30;;;;;;;3.70;1.80;;;25.00;1.00;;;;;;5072752;28;20821;-57
2022/05/23 10:16:00;;;;;;;2.47;1.80;;;25.00;1.00;;;;;;5059218;28;20952;-58
2022/05/23 10:18:30;;;;;;;2.40;2.20;;;25.10;1.00;;;;;;5071302;28;20448;-57
2022/05/23 10:20:57;;;;;;;3.93;1.97;;;25.10;1.00;;;;;;5072300;28;20447;-57
2022/05/23 10:23:29;;;;;;;3.37;1.83;;;25.30;1.00;;;;;;5072431;28;20473;-56
2022/05/23 10:26:17;;;;;;;3.27;2.10;;;25.40;1.00;;;;;;5053033;28;20874;-57
2022/05/23 10:29:06;;;;;;;3.07;2.20;;;25.50;1.00;;;;;;5053848;28;20423;-57
2022/05/23 10:31:37;;;;;;;4.47;2.03;;;26.00;1.00;;;;;;5050913;28;20445;-57
2022/05/23 10:34:41;;;;;;;11.10;2.43;;;26.30;1.00;;;;;;5053864;28;20439;-58
2022/05/23 10:37:10;;;;;;;2.20;2.00;;;26.00;1.00;;;;;;5052303;28;20405;-58
2022/05/23 10:42:34;;;;;;;3.87;2.70;;;25.30;1.00;;;;;;5055068;28;20872;-57
2022/05/23 10:45:25;;;;;;;3.50;2.60;;;25.30;1.00;;;;;;5072148;28;20500;-57
2022/05/23 10:48:29;;;;;;;4.50;2.20;;;25.30;1.00;;;;;;5070561;28;20984;-56
2022/05/23 10:51:36;;;;;;;4.30;2.20;;;25.40;1.00;;;;;;5071870;28;20433;-56
2022/05/23 10:54:22;;;;;;;2.93;2.30;;;25.40;1.00;;;;;;5072027;28;20441;-56
2022/05/23 10:57:02;;;;;;;4.80;2.57;;;25.30;1.00;;;;;;5050769;28;20846;-58
2022/05/23 11:00:02;;;;;;;3.60;2.60;;;25.10;1.00;;;;;;5052336;28;20518;-57
2022/05/23 11:02:37;;;;;;;4.33;2.70;;;25.00;1.00;;;;;;5064554;28;20443;-57
2022/05/23 11:05:32;;;;;;;3.97;2.30;;;24.80;1.00;;;;;;5045475;28;20822;-57
2022/05/23 11:08:27;;;;;;;2.53;2.23;;;24.90;1.00;;;;;;5050513;28;20943;-56
2022/05/23 11:11:05;;;;;;;3.77;2.27;;;25.30;1.00;;;;;;5051246;28;20437;-57
2022/05/23 11:13:49;;;;;;;3.03;2.20;;;25.80;1.00;;;;;;5051579;28;20473;-57
2022/05/23 11:16:36;;;;;;;4.83;2.50;;;26.00;1.00;;;;;;5064428;28;20429;-58
2022/05/23 11:19:51;;;;;;;4.30;2.23;;;25.80;1.00;;;;;;5065862;28;20469;-57
2022/05/23 11:22:23;;;;;;;5.70;2.70;;;25.80;1.00;;;;;;5041835;28;20516;-57
2022/05/23 11:25:12;;;;;;;2.50;2.20;;;25.90;1.00;;;;;;5059666;28;20432;-56
2022/05/23 11:36:00;;;;;;;4.93;2.30;;;25.40;1.00;;;;;;5051135;28;20453;-57
2022/05/23 11:38:28;;;;;;;4.00;2.13;;;25.30;1.00;;;;;;5051139;28;20442;-56
2022/05/23 11:41:10;;;;;;;2.60;2.37;;;26.40;1.00;;;;;;5051302;28;20413;-57
2022/05/23 11:43:36;;;;;;;4.53;2.13;;;26.70;1.00;;;;;;5049581;28;20465;-58
2022/05/23 11:46:10;;;;;;;5.13;2.63;;;26.90;1.00;;;;;;5050807;28;20466;-58
2022/05/23 11:48:46;;;;;;;3.93;2.47;;;26.60;1.00;;;;;;5063809;28;20179;-56
2022/05/23 11:51:24;;;;;;;3.87;2.43;;;26.40;1.00;;;;;;5070443;28;20397;-56
2022/05/23 11:54:13;;;;;;;2.80;2.30;;;26.30;1.00;;;;;;5070964;28;20494;-57
2022/05/23 11:56:59;;;;;;;5.20;2.87;;;26.10;1.00;;;;;;5070717;28;20442;-57
2022/05/23 11:59:25;;;;;;;6.27;2.33;;;26.10;1.00;;;;;;5070530;28;20437;-57
2022/05/23 12:02:12;;;;;;;6.63;2.73;;;25.90;1.00;;;;;;5070790;28;20441;-56
2022/05/23 12:04:49;;;;;;;4.27;2.70;;;26.00;1.00;;;;;;5071046;28;20207;-57
2022/05/23 12:07:41;;;;;;;5.73;2.57;;;25.90;1.00;;;;;;5052389;28;20447;-59
2022/05/23 12:10:24;;;;;;;6.23;3.23;;;26.00;1.00;;;;;;5050896;28;20416;-58
2022/05/23 12:12:52;;;;;;;4.80;2.80;;;26.00;1.00;;;;;;5055426;28;20432;-57
2022/05/23 12:15:58;;;;;;;5.63;2.40;;;26.20;1.00;;;;;;5070064;28;20935;-57
2022/05/23 12:18:23;;;;;;;4.07;2.67;;;26.10;1.00;;;;;;5047402;28;20437;-58
2022/05/23 12:21:01;;;;;;;5.77;2.50;;;26.30;1.00;;;;;;5040433;28;20442;-56
2022/05/23 12:23:35;;;;;;;4.97;2.90;;;26.50;1.00;;;;;;5060409;28;20847;-57
2022/05/23 12:26:32;;;;;;;4.07;2.90;;;26.70;1.00;;;;;;5070508;28;20503;-56
2022/05/23 12:29:00;;;;;;;4.83;2.67;;;26.70;1.00;;;;;;5049110;28;20530;-56
2022/05/23 12:31:31;;;;;;;5.73;2.40;;;27.00;1.00;;;;;;5050147;28;20808;-57
2022/05/23 12:34:01;;;;;;;9.33;2.60;;;26.90;1.00;;;;;;5063025;28;20906;-58
2022/05/23 12:36:29;;;;;;;3.97;3.00;;;26.50;1.00;;;;;;5069907;28;20437;-57
2022/05/23 12:39:25;;;;;;;4.37;2.60;;;26.40;1.00;;;;;;5069671;28;20479;-57
2022/05/23 12:42:00;;;;;;;3.87;2.77;;;26.30;1.00;;;;;;5069323;28;20441;-56
2022/05/23 12:44:52;;;;;;;5.37;2.50;;;26.40;1.00;;;;;;5069912;28;20503;-57
2022/05/23 12:47:33;;;;;;;5.30;3.20;;;26.60;1.00;;;;;;5070398;28;20501;-57
2022/05/23 12:50:28;;;;;;;3.60;2.60;;;26.70;1.00;;;;;;5070208;28;20922;-57
2022/05/23 12:53:35;;;;;;;4.07;2.90;;;30.80;1.00;;;;;;5058703;28;20923;-58
2022/05/23 12:56:34;;;;;;;3.40;2.77;;;26.90;1.00;;;;;;5052433;28;20499;-58
2022/05/23 12:59:26;;;;;;;4.23;2.93;;;27.00;1.00;;;;;;5066654;28;20469;-58
2022/05/23 13:01:59;;;;;;;3.20;2.87;;;26.80;1.00;;;;;;5056320;28;20423;-57
2022/05/23 13:04:51;;;;;;;5.40;3.50;;;26.90;1.00;;;;;;5069600;28;20469;-57
2022/05/23 13:07:19;;;;;;;3.00;2.50;;;26.70;1.00;;;;;;5059055;28;20437;-56
2022/05/23 13:10:13;;;;;;;5.13;3.20;;;26.80;1.00;;;;;;5070027;28;20479;-56
2022/05/23 13:12:48;;;;;;;4.40;4.00;;;26.80;1.00;;;;;;5069656;28;20433;-56
2022/05/23 13:15:29;;;;;;;4.03;2.83;;;26.70;1.00;;;;;;5069674;28;20507;-58
2022/05/23 13:23:25;;;;;;;3.87;3.17;;;26.60;1.00;;;;;;5070241;28;20411;-58
2022/05/23 13:25:51;;;;;;;5.90;3.20;;;;;;;;;;5069399;28;20492;-58
2022/05/23 13:28:19;;;;;;;3.17;2.87;;;26.60;1.00;;;;;;5051482;28;20462;-58
2022/05/23 13:30:53;;;;;;;6.70;3.37;;;26.40;1.00;;;;;;5053202;28;20438;-58
2022/05/23 13:33:29;;;;;;;3.57;3.27;;;26.50;1.00;;;;;;5056046;28;20495;-56
2022/05/23 13:35:59;;;;;;;5.47;3.50;;;26.40;1.00;;;;;;5073574;28;20447;-57
2022/05/23 13:38:31;;;;;;;5.73;3.10;;;26.20;1.00;;;;;;5070305;28;20464;-57
2022/05/23 13:40:59;;;;;;;5.87;3.50;;;26.00;1.00;;;;;;5053013;28;20426;-58
2022/05/23 13:43:42;;;;;;;11.37;3.30;;;25.70;1.00;;;;;;5052100;28;20515;-58
2022/05/23 13:48:45;;;;;;;4.47;2.97;;;25.30;1.00;;;;;;5052989;28;20434;-58
2022/05/23 13:51:20;;;;;;;4.47;2.90;;;24.80;1.00;;;;;;5068374;28;20371;-56
2022/05/23 13:53:50;;;;;;;5.00;3.20;;;24.70;1.00;;;;;;5063161;28;20850;-58
2022/05/23 13:56:17;;;;;;;5.37;3.50;;;24.70;1.00;;;;;;5051373;28;20438;-58
2022/05/23 13:58:48;;;;;;;3.90;3.13;;;24.90;1.00;;;;;;5053188;28;20452;-58
2022/05/23 14:01:28;;;;;;;5.97;3.47;;;24.80;1.00;;;;;;5051256;28;20442;-58
2022/05/23 14:04:00;;;;;;;6.63;3.20;;;24.80;1.00;;;;;;5049050;28;20432;-58
2022/05/23 14:06:37;;;;;;;4.00;3.27;;;24.90;1.00;;;;;;5051972;28;20547;-56
2022/05/23 14:09:06;;;;;;;9.33;4.03;;;24.70;1.00;;;;;;5063809;28;20446;-56
2022/05/23 14:11:50;;;;;;;5.43;3.43;;;24.70;1.00;;;;;;5068002;28;20854;-58
2022/05/23 14:14:15;;;;;;;8.53;5.00;;;24.40;1.00;;;;;;5055447;28;20446;-59
2022/05/23 14:16:51;;;;;;;4.43;3.57;;;24.30;1.00;;;;;;5052600;28;20586;-58
2022/05/23 14:19:47;;;;;;;4.63;2.93;;;24.20;1.00;;;;;;5052142;28;20194;-57
2022/05/23 14:22:22;;;;;;;3.87;2.90;;;24.40;1.00;;;;;;5055764;28;20888;-59
2022/05/23 14:24:51;;;;;;;4.67;3.47;;;24.40;1.00;;;;;;5051622;28;20494;-58
2022/05/23 14:27:18;;;;;;;7.63;3.70;;;24.40;1.00;;;;;;5050288;28;20442;-56
2022/05/23 14:29:45;;;;;;;4.27;3.50;;;24.40;1.00;;;;;;5053148;28;20473;-57